Time;durP1;ratioP1;P1;durP2;ratioP2;P2;SDS_P1;SDS_P2;PMS_P1;PMS_P2;Temp;Humidity;BMP_temperature;BMP_pressure;BME280_temperature;BME280_humidity;BME280_pressure;Samples;Min_cycle;Max_cycle;Signal;HPM_P1;HPM_P2
2022/10/05 00:02:36;;;;;;;7.20;5.35;;;;;;;22.65;55.67;101302.63;20671677;28;20047;-79
2022/10/05 00:12:36;;;;;;;6.25;5.13;;;;;;;22.65;55.41;101313.19;20661185;28;20050;-78
2022/10/05 00:22:37;;;;;;;6.63;5.35;;;;;;;22.62;55.48;101302.00;20654673;28;20133;-79
2022/10/05 00:32:37;;;;;;;5.95;4.63;;;;;;;22.67;55.58;101306.00;20674339;28;20045;-78
2022/10/05 00:42:55;;;;;;;6.53;4.57;;;;;;;22.66;55.56;101290.28;20654986;28;20038;-80
2022/10/05 00:53:08;;;;;;;5.38;4.60;;;;;;;22.66;55.68;101291.13;20659723;28;20505;-78
2022/10/05 01:03:19;;;;;;;5.40;4.70;;;;;;;22.65;55.59;101299.16;20662192;28;20042;-79
2022/10/05 01:13:39;;;;;;;5.00;4.18;;;;;;;22.61;55.76;101314.34;20661487;28;20111;-78
2022/10/05 01:24:00;;;;;;;6.57;4.18;;;;;;;22.59;55.61;101332.09;20653378;28;20070;-79
2022/10/05 01:34:02;;;;;;;4.78;3.80;;;;;;;22.59;55.62;101329.44;20665634;28;20060;-80
2022/10/05 01:44:14;;;;;;;4.10;3.70;;;;;;;22.59;55.23;101333.91;20662135;28;20046;-79
2022/10/05 01:54:53;;;;;;;6.10;4.20;;;;;;;22.59;55.40;101326.81;20648005;28;20042;-78
2022/10/05 02:05:03;;;;;;;5.53;4.13;;;;;;;22.56;55.55;101337.59;20653698;28;20603;-78
2022/10/05 02:15:12;;;;;;;5.07;3.97;;;;;;;22.53;55.34;101348.34;20651813;28;20038;-79
2022/10/05 02:25:16;;;;;;;5.13;4.07;;;;;;;22.52;55.05;101346.66;20664853;28;20140;-79
2022/10/05 02:35:18;;;;;;;4.57;3.72;;;;;;;22.48;55.30;101342.53;20656523;28;20136;-79
2022/10/05 02:45:32;;;;;;;3.97;3.57;;;;;;;22.51;55.31;101352.91;20651906;28;20167;-80
2022/10/05 02:55:45;;;;;;;4.72;4.03;;;;;;;22.53;54.84;101364.19;20656383;28;20039;-78
2022/10/05 03:06:13;;;;;;;7.03;3.63;;;;;;;22.50;54.79;101362.59;20659430;28;20053;-78
2022/10/05 03:16:37;;;;;;;4.85;3.90;;;;;;;22.51;55.21;101350.28;20650428;28;20113;-78
2022/10/05 03:27:19;;;;;;;4.70;3.85;;;;;;;22.45;55.39;101337.47;20654201;28;20077;-78
2022/10/05 03:37:49;;;;;;;4.03;3.60;;;;;;;22.44;55.02;101338.44;20626814;28;20049;-78
2022/10/05 03:48:00;;;;;;;6.78;3.90;;;;;;;22.43;55.15;101356.03;20649070;28;20125;-79
2022/10/05 03:58:09;;;;;;;4.18;3.78;;;;;;;22.40;55.06;101372.09;20656094;28;20398;-79
2022/10/05 04:08:19;;;;;;;5.00;3.88;;;;;;;22.41;54.99;101367.66;20638962;28;20042;-78
2022/10/05 04:18:32;;;;;;;5.28;3.58;;;;;;;22.33;54.83;101363.69;20638790;28;20049;-78
2022/10/05 04:28:48;;;;;;;4.50;3.05;;;;;;;22.43;55.80;101365.78;20638146;28;20457;-78
2022/10/05 04:39:05;;;;;;;8.15;3.60;;;;;;;22.47;56.88;101370.75;20639822;28;20034;-78
2022/10/05 04:49:40;;;;;;;6.53;3.55;;;;;;;22.50;56.89;101378.44;20652783;28;20053;-79
2022/10/05 05:00:05;;;;;;;10.77;4.50;;;;;;;22.39;53.26;101367.78;20639561;28;20058;-78
2022/10/05 05:10:33;;;;;;;9.80;4.80;;;;;;;22.22;51.34;101363.59;20643661;28;20045;-78
2022/10/05 05:20:56;;;;;;;7.22;4.30;;;;;;;22.23;53.05;101374.03;20643386;28;20050;-74
2022/10/05 05:31:02;;;;;;;14.45;5.80;;;;;;;22.16;52.40;101367.47;20655166;28;20104;-77
2022/10/05 05:41:16;;;;;;;9.30;4.43;;;;;;;22.22;53.41;101382.88;20651762;28;20088;-76
2022/10/05 05:51:51;;;;;;;11.95;4.13;;;;;;;22.29;54.47;101390.38;20644663;28;20042;-76
2022/10/05 06:02:02;;;;;;;8.80;4.07;;;;;;;22.28;55.00;101417.75;20649742;28;20065;-77
2022/10/05 06:12:18;;;;;;;11.67;4.50;;;;;;;22.28;55.03;101444.13;20658889;28;20137;-77
2022/10/05 06:22:26;;;;;;;9.80;4.45;;;;;;;22.29;54.91;101465.13;20658354;28;20169;-77
2022/10/05 06:32:32;;;;;;;8.07;4.03;;;;;;;22.29;55.71;101465.13;20656074;28;20053;-77
2022/10/05 06:42:55;;;;;;;9.20;3.67;;;;;;;22.33;55.88;101471.88;20661303;28;20070;-77
2022/10/05 06:52:56;;;;;;;;;;;;;;;22.37;55.50;101491.00;20650464;28;20517;-77
2022/10/05 07:03:07;;;;;;;9.10;3.67;;;;;;;22.39;55.70;101502.34;20658075;28;20362;-76
2022/10/05 07:13:26;;;;;;;8.55;3.50;;;;;;;22.43;55.80;101521.47;20655184;28;20052;-76
2022/10/05 07:23:44;;;;;;;7.07;3.80;;;;;;;22.41;55.64;101502.25;20645549;28;20038;-76
2022/10/05 07:34:23;;;;;;;6.25;3.75;;;;;;;22.45;56.01;101519.56;20652832;28;20042;-77
2022/10/05 07:44:51;;;;;;;5.00;3.25;;;;;;;22.42;55.63;101502.13;20653366;28;20448;-76
2022/10/05 07:55:02;;;;;;;6.10;3.72;;;;;;;22.46;55.68;101502.78;20654713;28;20497;-76
2022/10/05 08:05:28;;;;;;;4.90;3.10;;;;;;;22.47;55.55;101526.47;20658731;28;20030;-76
2022/10/05 08:15:38;;;;;;;8.68;3.58;;;;;;;22.45;55.57;101506.38;20653461;28;20054;-76
2022/10/05 08:26:00;;;;;;;4.68;3.13;;;;;;;22.49;55.76;101487.59;20660040;28;20057;-77
2022/10/05 08:36:11;;;;;;;3.58;2.90;;;;;;;22.52;55.44;101483.91;20660199;28;20117;-76
2022/10/05 08:46:45;;;;;;;3.35;2.90;;;;;;;22.56;55.38;101477.50;20663805;28;20117;-77
2022/10/05 08:57:22;;;;;;;4.30;3.00;;;;;;;22.60;55.54;101478.13;20662624;28;20045;-76
2022/10/05 09:08:00;;;;;;;4.70;2.80;;;;;;;22.62;55.51;101494.69;20658050;28;20354;-77
2022/10/05 09:18:27;;;;;;;4.55;2.90;;;;;;;22.67;55.26;101511.09;20650605;28;20049;-76
2022/10/05 09:28:31;;;;;;;3.55;2.90;;;;;;;22.71;55.17;101500.22;20648555;28;20058;-77
2022/10/05 09:39:15;;;;;;;5.25;3.90;;;;;;;22.78;55.32;101497.19;20658732;28;20506;-77
2022/10/05 09:49:32;;;;;;;4.97;3.75;;;;;;;22.85;55.22;101496.66;20655674;28;20050;-76
2022/10/05 09:59:54;;;;;;;5.20;3.65;;;;;;;22.89;54.99;101492.03;20651077;28;20042;-76
2022/10/05 10:10:06;;;;;;;5.97;5.20;;;;;;;22.92;54.99;101497.09;20654623;28;20046;-77
2022/10/05 10:20:22;;;;;;;7.10;4.93;;;;;;;22.99;55.06;101494.91;20666135;28;20042;-76
2022/10/05 10:30:45;;;;;;;5.90;4.70;;;;;;;23.03;54.93;101497.22;20666262;28;20057;-77
2022/10/05 10:40:48;;;;;;;6.10;4.40;;;;;;;23.07;55.87;101487.31;20672547;28;20100;-77
2022/10/05 10:51:04;;;;;;;12.70;5.88;;;;;;;23.16;57.90;101502.53;20657250;28;20050;-77
2022/10/05 11:01:42;;;;;;;10.70;6.00;;;;;;;23.28;58.59;101500.03;20657000;28;20038;-77
2022/10/05 11:11:52;;;;;;;7.75;5.03;;;;;;;23.40;57.99;101495.66;20669517;28;20050;-84
2022/10/05 11:22:29;;;;;;;7.72;4.55;;;;;;;23.46;57.03;101485.53;20702184;28;20072;-83
2022/10/05 11:33:00;;;;;;;5.90;4.10;;;;;;;23.55;56.71;101472.63;20696731;28;20057;-83
2022/10/05 11:43:27;;;;;;;6.23;4.27;;;;;;;23.61;56.17;101462.44;20687928;28;20072;-83
2022/10/05 11:53:45;;;;;;;6.18;3.75;;;;;;;23.66;55.81;101451.56;20677454;28;20515;-87
2022/10/05 12:04:17;;;;;;;7.45;3.67;;;;;;;23.76;55.67;101442.00;20686702;28;20681;-86
2022/10/05 12:14:20;;;;;;;3.87;3.43;;;;;;;23.76;55.32;101436.69;20686751;28;20050;-85
2022/10/05 12:24:23;;;;;;;4.90;3.72;;;;;;;23.77;55.37;101434.91;20688785;28;20080;-85
2022/10/05 12:34:50;;;;;;;6.53;3.53;;;;;;;23.71;55.34;101420.31;20680550;28;20129;-87
2022/10/05 12:45:19;;;;;;;8.32;3.53;;;;;;;23.71;55.06;101396.53;20633543;28;20064;-80
2022/10/05 12:55:53;;;;;;;7.03;4.03;;;;;;;23.69;55.25;101401.06;20652772;28;21073;-84
2022/10/05 13:06:21;;;;;;;7.38;4.15;;;;;;;23.67;55.49;101395.91;20660980;28;20100;-79
2022/10/05 13:16:38;;;;;;;6.22;4.78;;;;;;;23.70;55.38;101396.66;20657702;28;20110;-80
2022/10/05 13:26:43;;;;;;;8.57;5.07;;;;;;;23.76;55.38;101382.97;20647235;28;20472;-81
2022/10/05 13:36:43;;;;;;;9.75;5.30;;;;;;;23.81;55.28;101387.00;20650856;28;20038;-83
2022/10/05 13:46:51;;;;;;;11.77;5.40;;;;;;;23.80;54.93;101381.78;20657578;28;20022;-77
2022/10/05 13:57:10;;;;;;;11.65;6.05;;;;;;;23.76;54.97;101369.75;20655402;28;20056;-77
2022/10/05 14:07:22;;;;;;;9.00;5.70;;;;;;;23.73;54.79;101384.03;20659372;28;20081;-77
2022/10/05 14:17:32;;;;;;;9.95;6.47;;;;;;;23.70;55.04;101378.13;20653733;28;20414;-77
2022/10/05 14:27:46;;;;;;;11.82;6.80;;;;;;;23.67;54.96;101380.03;20657820;28;20046;-76
2022/10/05 14:37:55;;;;;;;11.27;6.50;;;;;;;23.63;55.19;101380.38;20664300;28;20038;-75
2022/10/05 14:48:15;;;;;;;8.13;5.82;;;;;;;23.57;55.19;101383.44;20682290;28;20054;-76
2022/10/05 14:58:35;;;;;;;8.15;5.95;;;;;;;23.51;55.82;101371.53;20673835;28;20038;-77
2022/10/05 15:08:40;;;;;;;11.10;6.60;;;;;;;23.42;55.65;101357.16;20667661;28;20062;-76
2022/10/05 15:19:03;;;;;;;11.00;7.05;;;;;;;23.41;55.72;101355.50;20679623;28;20042;-78
2022/10/05 15:29:26;;;;;;;10.55;7.15;;;;;;;23.26;55.73;101362.69;20659599;28;20101;-77
2022/10/05 15:39:34;;;;;;;12.50;7.15;;;;;;;23.22;55.45;101349.81;20656111;28;20496;-76
2022/10/05 15:49:56;;;;;;;13.18;7.28;;;;;;;23.18;55.10;101344.75;20633644;28;20458;-77
2022/10/05 16:00:03;;;;;;;17.53;7.27;;;;;;;23.13;55.06;101349.50;20634614;28;20087;-76
2022/10/05 16:10:20;;;;;;;12.68;7.18;;;;;;;23.11;55.15;101351.41;20650032;28;20052;-76
2022/10/05 16:20:29;;;;;;;9.07;5.90;;;;;;;23.07;55.01;101355.22;20639181;28;20046;-76
2022/10/05 16:30:55;;;;;;;9.70;6.75;;;;;;;23.02;55.05;101354.66;20608268;28;20046;-77
2022/10/05 16:41:23;;;;;;;11.32;6.85;;;;;;;23.01;55.18;101369.69;20640753;28;20067;-82
2022/10/05 16:51:55;;;;;;;10.52;6.38;;;;;;;23.00;55.30;101383.84;20632110;28;20042;-82
2022/10/05 17:01:59;;;;;;;10.43;6.03;;;;;;;22.99;55.65;101395.34;20619899;28;20509;-80
2022/10/05 17:12:25;;;;;;;21.48;9.48;;;;;;;23.05;56.18;101404.66;20620696;28;20057;-77
2022/10/05 17:22:31;;;;;;;46.08;15.18;;;;;;;23.03;56.89;101406.56;20615456;28;20084;-78
2022/10/05 17:32:35;;;;;;;32.92;13.07;;;;;;;23.07;57.43;101404.53;20635906;28;20042;-78
2022/10/05 17:42:35;;;;;;;26.90;11.98;;;;;;;23.06;57.58;101406.34;20647338;28;20046;-77
2022/10/05 18:02:56;;;;;;;23.27;10.32;;;;;;;22.96;58.01;101410.56;20660656;28;20036;-78
2022/10/05 18:12:59;;;;;;;25.53;9.77;;;;;;;22.99;57.74;101418.28;20653831;28;20045;-77
2022/10/05 18:23:08;;;;;;;24.20;11.68;;;;;;;22.98;57.69;101408.69;20655967;28;20062;-77
2022/10/05 18:33:12;;;;;;;19.42;10.30;;;;;;;22.97;57.59;101415.78;20664318;28;20046;-78
2022/10/05 18:43:37;;;;;;;21.63;10.32;;;;;;;22.97;57.59;101410.50;20635805;28;20108;-77
2022/10/05 18:53:42;;;;;;;17.77;9.98;;;;;;;22.97;57.76;101412.25;20688317;28;20071;-77
2022/10/05 19:04:12;;;;;;;16.77;8.88;;;;;;;23.00;58.29;101412.91;20663928;28;20934;-79
2022/10/05 19:14:21;;;;;;;17.95;8.40;;;;;;;22.99;58.02;101405.09;20650927;28;20433;-76
2022/10/05 19:24:46;;;;;;;18.60;8.10;;;;;;;22.94;57.79;101423.06;20661102;28;20043;-77
2022/10/05 19:35:17;;;;;;;15.77;8.15;;;;;;;22.91;57.48;101424.13;20657619;28;20761;-77
2022/10/05 19:45:23;;;;;;;15.82;8.18;;;;;;;22.89;57.33;101430.44;20682583;28;20044;-77
2022/10/05 19:55:31;;;;;;;12.57;7.30;;;;;;;22.86;57.47;101437.63;20668736;28;20061;-79
2022/10/05 20:05:32;;;;;;;12.13;6.88;;;;;;;22.86;57.55;101444.69;20688160;28;20121;-77
2022/10/05 20:36:13;;;;;;;12.75;6.15;;;;;;;22.79;56.83;101460.13;20669529;28;20042;-77
2022/10/05 20:46:13;;;;;;;13.20;6.03;;;;;;;22.79;56.51;101467.19;20657463;28;20048;-78
2022/10/05 20:56:14;;;;;;;12.07;6.63;;;;;;;22.79;56.58;101459.25;20653947;28;20515;-77
2022/10/05 21:06:14;;;;;;;10.10;5.80;;;;;;;22.78;56.46;101465.50;20667404;28;20420;-78
2022/10/05 21:16:17;;;;;;;10.20;5.90;;;;;;;22.78;56.38;101466.34;20657665;28;20739;-78
2022/10/05 21:26:17;;;;;;;8.63;5.45;;;;;;;22.77;56.46;101458.53;20646717;28;20057;-78
2022/10/05 21:36:23;;;;;;;8.98;5.22;;;;;;;22.76;56.48;101459.47;20636906;28;21564;-78
2022/10/05 21:46:25;;;;;;;10.02;5.70;;;;;;;22.75;56.75;101457.78;20637436;28;20493;-77
2022/10/05 21:56:30;;;;;;;21.53;6.00;;;;;;;22.73;56.73;101460.53;20633495;28;20046;-77
2022/10/05 22:06:31;;;;;;;10.57;5.43;;;;;;;22.73;56.92;101451.75;20640538;28;20053;-77
2022/10/05 22:16:35;;;;;;;8.13;5.55;;;;;;;22.70;57.04;101444.88;20638924;28;20077;-78
2022/10/05 22:26:44;;;;;;;6.93;5.00;;;;;;;22.68;57.20;101442.34;20643618;28;20598;-77
2022/10/05 22:36:46;;;;;;;8.15;4.90;;;;;;;22.69;56.99;101443.19;20639583;28;20125;-78
2022/10/05 22:46:46;;;;;;;6.70;4.77;;;;;;;22.66;57.22;101435.50;20641030;28;20050;-77
2022/10/05 22:56:47;;;;;;;7.45;4.93;;;;;;;22.67;57.45;101431.91;20638756;28;21148;-77
2022/10/05 23:06:47;;;;;;;9.60;4.93;;;;;;;22.65;57.20;101412.66;20637224;28;20932;-77
2022/10/05 23:16:48;;;;;;;5.78;4.30;;;;;;;22.63;57.72;101412.78;20641271;28;20512;-79
2022/10/05 23:26:49;;;;;;;7.93;4.88;;;;;;;22.62;57.75;101408.44;20640784;28;20073;-78
2022/10/05 23:36:49;;;;;;;6.78;4.53;;;;;;;22.62;57.43;101404.94;20633599;28;20042;-78
2022/10/05 23:46:49;;;;;;;6.95;4.45;;;;;;;22.59;57.21;101400.72;20645156;28;20042;-78
2022/10/05 23:56:50;;;;;;;5.85;4.10;;;;;;;22.60;57.63;101397.13;20630552;28;20040;-79
